createdAt,value
2018-05-16T00:00:06.723Z,99.90
2018-05-16T00:03:11.065Z,99.90
2018-05-16T00:06:14.227Z,99.90
2018-05-16T00:09:17.636Z,99.90
2018-05-16T00:12:21.078Z,99.90
2018-05-16T00:15:25.015Z,99.90
2018-05-16T00:18:30.164Z,99.90
2018-05-16T00:21:34.621Z,99.90
2018-05-16T00:24:37.890Z,99.90
2018-05-16T00:27:41.077Z,99.90
2018-05-16T00:30:44.417Z,99.90
2018-05-16T00:33:48.421Z,99.90
2018-05-16T00:36:52.422Z,99.90
2018-05-16T00:39:55.615Z,99.90
2018-05-16T00:42:58.854Z,99.90
2018-05-16T00:46:02.103Z,99.90
2018-05-16T00:49:05.403Z,99.90
2018-05-16T00:52:08.561Z,99.90
2018-05-16T00:55:12.096Z,99.90
2018-05-16T00:58:15.327Z,99.90
2018-05-16T01:01:20.242Z,99.90
2018-05-16T01:04:23.525Z,99.90
2018-05-16T01:07:26.716Z,99.90
2018-05-16T01:10:30.301Z,99.90
2018-05-16T01:13:33.545Z,99.90
2018-05-16T01:16:37.558Z,99.90
2018-05-16T01:19:41.614Z,99.90
2018-05-16T01:22:44.772Z,99.90
2018-05-16T01:25:47.959Z,99.90
2018-05-16T01:28:51.969Z,99.90
2018-05-16T01:31:55.161Z,99.90
2018-05-16T01:34:59.041Z,99.90
2018-05-16T01:38:02.281Z,99.90
2018-05-16T01:41:05.515Z,99.90
2018-05-16T01:44:09.799Z,99.90
2018-05-16T01:47:13.037Z,99.90
2018-05-16T01:50:16.267Z,99.90
2018-05-16T01:53:19.446Z,99.90
2018-05-16T01:56:22.635Z,99.90
2018-05-16T01:59:26.164Z,99.90
2018-05-16T02:02:29.334Z,99.90
2018-05-16T02:05:33.628Z,99.90
2018-05-16T02:08:37.613Z,99.90
2018-05-16T02:11:41.457Z,99.90
2018-05-16T02:14:45.579Z,99.90
2018-05-16T02:17:48.791Z,99.90
2018-05-16T02:20:53.330Z,99.90
2018-05-16T02:23:56.781Z,99.90
2018-05-16T02:27:00.018Z,99.90
2018-05-16T02:30:03.199Z,99.90
2018-05-16T02:33:07.388Z,99.90
2018-05-16T02:36:10.567Z,99.90
2018-05-16T02:39:14.711Z,99.90
2018-05-16T02:42:17.888Z,99.90
2018-05-16T02:45:21.086Z,99.90
2018-05-16T02:48:24.556Z,99.90
2018-05-16T02:51:28.959Z,99.90
2018-05-16T02:54:32.177Z,99.90
2018-05-16T02:57:36.263Z,99.90
2018-05-16T03:00:39.556Z,99.90
2018-05-16T03:03:42.734Z,99.90
2018-05-16T03:06:45.897Z,99.90
2018-05-16T03:09:50.384Z,99.90
2018-05-16T03:12:54.485Z,99.90
2018-05-16T03:15:58.663Z,99.90
2018-05-16T03:19:04.325Z,99.90
2018-05-16T03:22:07.627Z,99.90
2018-05-16T03:25:11.676Z,99.90
2018-05-16T03:28:14.869Z,99.90
2018-05-16T03:31:18.192Z,99.90
2018-05-16T03:34:22.140Z,99.90
2018-05-16T03:37:25.332Z,99.90
2018-05-16T03:40:29.539Z,99.90
2018-05-16T03:43:33.699Z,99.90
2018-05-16T03:46:37.380Z,99.90
2018-05-16T03:49:41.365Z,99.90
2018-05-16T03:52:44.988Z,99.90
2018-05-16T03:55:54.939Z,99.90
2018-05-16T03:59:11.777Z,99.90
2018-05-16T04:02:28.542Z,99.90
2018-05-16T04:05:32.088Z,99.90
2018-05-16T04:08:35.640Z,99.90
2018-05-16T04:11:39.991Z,99.90
2018-05-16T04:14:45.136Z,99.90
2018-05-16T04:17:48.869Z,99.90
2018-05-16T04:21:00.701Z,99.90
2018-05-16T04:27:36.522Z,99.90
2018-05-16T04:30:40.510Z,99.90
2018-05-16T04:33:45.918Z,99.90
2018-05-16T04:36:49.072Z,99.90
2018-05-16T04:39:55.483Z,99.90
2018-05-16T04:42:58.914Z,99.90
2018-05-16T04:46:02.154Z,99.90
2018-05-16T04:49:05.533Z,99.90
2018-05-16T04:52:08.800Z,99.90
2018-05-16T04:55:12.905Z,99.90
2018-05-16T04:58:16.509Z,99.90
2018-05-16T05:01:20.666Z,99.90
2018-05-16T05:04:23.920Z,99.90
2018-05-16T05:07:27.259Z,99.90
2018-05-16T05:10:33.534Z,99.90
2018-05-16T05:13:36.759Z,99.90
2018-05-16T05:16:41.901Z,99.90
2018-05-16T05:19:47.226Z,99.90
2018-05-16T05:22:50.440Z,99.90
2018-05-16T05:25:54.465Z,99.90
2018-05-16T05:28:57.959Z,99.90
2018-05-16T05:32:01.959Z,99.90
2018-05-16T05:35:06.407Z,99.90
2018-05-16T05:38:09.629Z,99.80
2018-05-16T05:41:12.894Z,98.70
2018-05-16T05:44:16.439Z,99.40
2018-05-16T05:47:19.647Z,97.30
2018-05-16T05:50:22.883Z,96.00
2018-05-16T05:53:26.045Z,96.10
2018-05-16T05:56:29.349Z,94.90
2018-05-16T05:59:32.579Z,97.30
2018-05-16T06:02:36.613Z,96.90
2018-05-16T06:05:39.783Z,96.80
2018-05-16T06:08:45.997Z,98.30
2018-05-16T06:11:50.356Z,95.90
2018-05-16T06:14:54.316Z,95.50
2018-05-16T06:17:58.405Z,95.70
2018-05-16T06:21:02.388Z,93.60
2018-05-16T06:24:05.838Z,93.60
2018-05-16T06:27:09.842Z,95.50
2018-05-16T06:30:14.904Z,95.40
2018-05-16T06:33:18.123Z,91.00
2018-05-16T06:36:21.678Z,93.80
2018-05-16T06:39:25.623Z,94.10
2018-05-16T06:42:28.916Z,94.00
2018-05-16T06:45:32.118Z,92.80
2018-05-16T06:48:41.327Z,93.70
2018-05-16T06:51:46.125Z,91.50
2018-05-16T06:54:49.422Z,89.80
2018-05-16T06:57:52.638Z,88.90
2018-05-16T07:00:55.903Z,85.20
2018-05-16T07:04:00.796Z,90.60
2018-05-16T07:07:04.040Z,90.50
2018-05-16T07:10:08.030Z,72.20
2018-05-16T07:13:11.271Z,71.30
2018-05-16T07:16:15.610Z,68.10
2018-05-16T07:19:18.775Z,70.00
2018-05-16T07:22:22.851Z,71.10
2018-05-16T07:25:26.074Z,70.80
2018-05-16T07:28:29.290Z,76.00
2018-05-16T07:31:32.565Z,79.70
2018-05-16T07:34:36.449Z,79.20
2018-05-16T07:37:39.650Z,76.80
2018-05-16T07:40:42.839Z,74.60
2018-05-16T07:43:47.543Z,74.00
2018-05-16T07:46:51.472Z,75.90
2018-05-16T07:49:54.672Z,75.60
2018-05-16T07:52:58.238Z,83.70
2018-05-16T07:56:01.488Z,82.50
2018-05-16T07:59:07.796Z,84.00
2018-05-16T08:02:10.995Z,85.90
2018-05-16T08:05:14.229Z,82.80
2018-05-16T08:08:17.851Z,73.50
2018-05-16T08:11:21.788Z,70.20
2018-05-16T08:14:26.117Z,76.60
2018-05-16T08:17:29.368Z,76.40
2018-05-16T08:20:32.525Z,81.00
2018-05-16T08:23:37.662Z,81.20
2018-05-16T08:26:40.903Z,79.40
2018-05-16T08:29:44.710Z,74.60
2018-05-16T08:32:47.945Z,73.80
2018-05-16T08:35:51.164Z,68.70
2018-05-16T08:38:54.337Z,72.00
2018-05-16T08:41:57.576Z,71.80
2018-05-16T08:45:00.855Z,67.50
2018-05-16T08:48:04.348Z,70.00
2018-05-16T08:51:07.533Z,69.70
2018-05-16T08:54:11.496Z,74.00
2018-05-16T08:57:14.756Z,73.10
2018-05-16T09:00:18.945Z,72.60
2018-05-16T09:03:22.263Z,75.90
2018-05-16T09:06:26.380Z,76.90
2018-05-16T09:09:29.600Z,76.80
2018-05-16T09:12:32.755Z,71.70
2018-05-16T09:15:37.635Z,66.50
2018-05-16T09:18:41.651Z,68.40
2018-05-16T09:21:45.072Z,68.00
2018-05-16T09:24:49.170Z,64.00
2018-05-16T09:27:53.151Z,63.10
2018-05-16T09:30:56.370Z,62.90
2018-05-16T09:33:59.552Z,62.00
2018-05-16T09:37:03.721Z,66.60
2018-05-16T09:40:06.939Z,60.80
2018-05-16T09:43:10.111Z,62.40
2018-05-16T09:46:13.901Z,62.70
2018-05-16T09:49:17.192Z,57.80
2018-05-16T09:52:21.175Z,65.20
2018-05-16T09:55:25.264Z,65.00
2018-05-16T09:58:28.535Z,68.20
2018-05-16T10:01:32.054Z,65.60
2018-05-16T10:04:37.140Z,65.10
2018-05-16T10:07:40.321Z,64.80
2018-05-16T10:10:43.577Z,64.40
2018-05-16T10:13:46.814Z,64.60
2018-05-16T10:16:50.836Z,69.30
2018-05-16T10:19:54.147Z,64.90
2018-05-16T10:22:57.414Z,65.90
2018-05-16T10:26:00.759Z,69.50
2018-05-16T10:29:05.365Z,71.30
2018-05-16T10:32:09.423Z,72.30
2018-05-16T10:35:12.840Z,71.80
2018-05-16T10:38:16.117Z,70.30
2018-05-16T10:41:20.971Z,68.20
2018-05-16T10:44:24.146Z,64.20
2018-05-16T10:47:27.417Z,66.90
2018-05-16T10:50:30.615Z,71.80
2018-05-16T10:53:37.109Z,77.30
2018-05-16T10:56:40.605Z,88.90
2018-05-16T10:59:43.924Z,90.50
2018-05-16T11:02:47.400Z,94.40
2018-05-16T11:05:50.644Z,95.50
2018-05-16T11:08:53.907Z,97.60
2018-05-16T11:11:58.143Z,96.80
2018-05-16T11:15:02.046Z,97.80
2018-05-16T11:18:05.320Z,99.70
2018-05-16T11:21:08.576Z,99.90
2018-05-16T11:24:11.814Z,99.90
2018-05-16T11:27:15.764Z,99.90
2018-05-16T11:30:19.057Z,99.90
2018-05-16T11:33:22.225Z,99.60
2018-05-16T11:36:25.513Z,98.50
2018-05-16T11:39:31.037Z,94.20
2018-05-16T11:42:36.189Z,94.20
2018-05-16T11:45:40.442Z,95.40
2018-05-16T11:48:43.723Z,95.20
2018-05-16T11:51:47.030Z,95.90
2018-05-16T11:54:50.300Z,95.70
2018-05-16T11:57:53.963Z,94.20
2018-05-16T12:00:57.177Z,94.90
2018-05-16T12:04:00.345Z,95.40
2018-05-16T12:07:04.057Z,96.10
2018-05-16T12:10:07.242Z,96.70
2018-05-16T12:13:10.660Z,98.40
2018-05-16T12:16:14.201Z,99.90
2018-05-16T12:19:18.134Z,99.90
2018-05-16T12:22:21.558Z,99.90
2018-05-16T12:25:24.726Z,99.90
2018-05-16T12:28:28.008Z,99.90
2018-05-16T12:31:31.963Z,99.90
2018-05-16T12:34:35.213Z,99.90
2018-05-16T12:37:39.179Z,99.90
2018-05-16T12:40:42.373Z,99.90
2018-05-16T12:43:45.541Z,99.90
2018-05-16T12:46:48.804Z,99.90
2018-05-16T12:49:52.266Z,99.90
2018-05-16T12:52:55.449Z,99.90
2018-05-16T12:55:59.555Z,99.90
2018-05-16T12:59:02.717Z,99.90
2018-05-16T13:02:05.913Z,99.90
2018-05-16T13:05:09.150Z,99.70
2018-05-16T13:08:14.047Z,99.90
2018-05-16T13:11:17.311Z,99.00
2018-05-16T13:14:20.749Z,98.90
2018-05-16T13:17:24.455Z,97.70
2018-05-16T13:20:27.683Z,98.00
2018-05-16T13:23:31.890Z,96.60
2018-05-16T13:26:35.235Z,96.00
2018-05-16T13:29:38.550Z,97.40
2018-05-16T13:32:42.478Z,97.20
2018-05-16T13:35:45.661Z,97.10
2018-05-16T13:38:49.124Z,98.10
2018-05-16T13:41:54.378Z,98.70
2018-05-16T13:44:58.935Z,99.10
2018-05-16T13:48:02.231Z,99.00
2018-05-16T13:51:05.496Z,98.80
2018-05-16T13:54:09.612Z,97.00
2018-05-16T13:57:13.680Z,96.90
2018-05-16T14:00:16.830Z,96.80
2018-05-16T14:03:23.359Z,97.20
2018-05-16T14:06:26.651Z,97.00
2018-05-16T14:09:29.965Z,96.90
2018-05-16T14:12:52.008Z,96.70
2018-05-16T14:16:01.393Z,96.70
2018-05-16T14:19:04.556Z,95.30
2018-05-16T14:22:08.568Z,96.30
2018-05-16T14:25:11.727Z,96.30
2018-05-16T14:28:14.969Z,96.10
2018-05-16T14:31:18.219Z,96.10
2018-05-16T14:34:22.718Z,97.00
2018-05-16T14:37:25.928Z,96.80
2018-05-16T14:40:29.112Z,97.70
2018-05-16T14:43:36.396Z,97.80
2018-05-16T14:46:39.594Z,98.30
2018-05-16T14:49:42.775Z,98.30
2018-05-16T14:52:45.943Z,98.40
2018-05-16T14:55:49.363Z,98.00
2018-05-16T14:58:53.502Z,97.10
2018-05-16T15:01:58.184Z,96.90
2018-05-16T15:05:01.561Z,97.20
2018-05-16T15:08:05.601Z,92.40
2018-05-16T15:11:09.610Z,92.70
2018-05-16T15:14:12.837Z,92.50
2018-05-16T15:17:16.204Z,92.30
2018-05-16T15:20:20.035Z,90.40
2018-05-16T15:23:24.121Z,86.90
2018-05-16T15:26:27.352Z,86.60
2018-05-16T15:29:30.596Z,88.40
2018-05-16T15:32:33.781Z,85.10
2018-05-16T15:35:36.974Z,88.70
2018-05-16T15:38:40.494Z,89.40
2018-05-16T15:41:43.730Z,87.70
2018-05-16T15:44:47.839Z,88.00
2018-05-16T15:47:51.223Z,87.50
2018-05-16T15:50:54.488Z,87.50
2018-05-16T15:54:07.541Z,88.00
2018-05-16T15:57:11.582Z,88.60
2018-05-16T16:00:14.756Z,87.90
2018-05-16T16:03:18.065Z,86.10
2018-05-16T16:06:24.541Z,85.40
2018-05-16T16:09:39.158Z,84.80
2018-05-16T16:12:44.302Z,85.30
2018-05-16T16:15:48.272Z,85.20
2018-05-16T16:18:53.300Z,83.00
2018-05-16T16:21:56.594Z,82.80
2018-05-16T16:24:59.809Z,83.70
2018-05-16T16:28:03.057Z,82.10
2018-05-16T16:31:07.020Z,81.40
2018-05-16T16:34:10.195Z,81.40
2018-05-16T16:37:13.401Z,80.70
2018-05-16T16:40:16.633Z,80.60
2018-05-16T16:43:22.364Z,79.20
2018-05-16T16:46:25.658Z,79.00
2018-05-16T16:49:43.861Z,78.50
2018-05-16T16:52:47.050Z,79.70
2018-05-16T16:55:50.527Z,81.00
2018-05-16T16:58:54.548Z,79.70
2018-05-16T17:01:58.528Z,80.50
2018-05-16T17:05:02.194Z,80.40
2018-05-16T17:08:06.112Z,81.40
2018-05-16T17:11:09.351Z,81.40
2018-05-16T17:14:12.549Z,82.50
2018-05-16T17:17:15.832Z,81.60
2018-05-16T17:20:19.287Z,86.80
2018-05-16T17:23:24.167Z,83.40
2018-05-16T17:26:29.007Z,82.90
2018-05-16T17:29:32.779Z,82.50
2018-05-16T17:32:36.039Z,82.30
2018-05-16T17:35:39.515Z,83.40
2018-05-16T17:38:43.479Z,83.30
2018-05-16T17:41:46.713Z,83.30
2018-05-16T17:44:50.351Z,83.70
2018-05-16T17:47:54.550Z,83.20
2018-05-16T17:50:57.737Z,83.00
2018-05-16T17:54:07.909Z,85.30
2018-05-16T17:57:11.179Z,85.70
2018-05-16T18:00:14.352Z,84.50
2018-05-16T18:03:17.527Z,83.60
2018-05-16T18:06:22.020Z,84.50
2018-05-16T18:09:25.816Z,84.20
2018-05-16T18:12:29.197Z,86.20
2018-05-16T18:15:45.347Z,86.80
2018-05-16T18:18:48.596Z,87.80
2018-05-16T18:21:52.129Z,89.20
2018-05-16T18:24:56.740Z,87.20
2018-05-16T18:28:04.912Z,86.80
2018-05-16T18:31:08.103Z,89.70
2018-05-16T18:34:11.298Z,88.80
2018-05-16T18:37:14.526Z,88.80
2018-05-16T18:40:17.757Z,90.50
2018-05-16T18:43:23.437Z,89.10
2018-05-16T18:46:26.682Z,89.30
2018-05-16T18:49:30.010Z,90.10
2018-05-16T18:52:39.833Z,90.70
2018-05-16T18:56:06.745Z,90.60
2018-05-16T18:59:09.940Z,89.30
2018-05-16T19:02:13.144Z,88.20
2018-05-16T19:05:16.484Z,89.00
2018-05-16T19:11:39.894Z,92.00
2018-05-16T19:14:43.838Z,94.20
2018-05-16T19:17:47.088Z,94.10
2018-05-16T19:20:51.661Z,92.90
2018-05-16T19:23:56.678Z,94.40
2018-05-16T19:27:00.795Z,94.30
2018-05-16T19:30:04.800Z,93.50
2018-05-16T19:33:09.071Z,93.50
2018-05-16T19:36:12.536Z,95.10
2018-05-16T19:39:15.953Z,95.50
2018-05-16T19:42:19.770Z,96.30
2018-05-16T19:45:26.564Z,95.80
2018-05-16T19:48:29.948Z,95.50
2018-05-16T19:51:58.915Z,96.10
2018-05-16T19:55:05.684Z,95.50
2018-05-16T19:58:18.800Z,97.20
2018-05-16T20:01:23.782Z,97.70
2018-05-16T20:04:38.868Z,98.40
2018-05-16T20:07:56.385Z,99.20
2018-05-16T20:11:01.400Z,99.90
2018-05-16T20:14:15.172Z,99.90
2018-05-16T20:17:19.237Z,99.90
2018-05-16T20:20:22.493Z,99.90
2018-05-16T20:23:25.779Z,99.90
2018-05-16T20:26:29.056Z,99.90
2018-05-16T20:29:32.263Z,99.90
2018-05-16T20:32:36.128Z,99.90
2018-05-16T20:35:39.374Z,99.90
2018-05-16T20:38:42.619Z,99.90
2018-05-16T20:41:45.862Z,99.90
2018-05-16T20:44:49.687Z,99.90
2018-05-16T20:47:53.713Z,99.90
2018-05-16T20:50:56.928Z,99.90
2018-05-16T20:54:00.139Z,99.90
2018-05-16T20:57:03.693Z,99.90
2018-05-16T21:00:06.976Z,99.90
2018-05-16T21:03:10.968Z,99.90
2018-05-16T21:06:14.172Z,99.90
2018-05-16T21:09:17.329Z,99.90
2018-05-16T21:12:20.966Z,99.90
2018-05-16T21:15:24.980Z,99.90
2018-05-16T21:18:28.223Z,99.90
2018-05-16T21:21:31.561Z,99.90
2018-05-16T21:24:34.811Z,99.90
2018-05-16T21:27:37.940Z,99.90
2018-05-16T21:30:41.129Z,99.90
2018-05-16T21:33:44.302Z,99.90
2018-05-16T21:36:47.962Z,99.90
2018-05-16T21:39:51.239Z,99.90
2018-05-16T21:42:56.099Z,99.90
2018-05-16T21:46:00.111Z,99.90
2018-05-16T21:49:04.109Z,99.90
2018-05-16T21:52:07.392Z,99.90
2018-05-16T21:55:10.596Z,99.90
2018-05-16T21:58:13.838Z,99.90
2018-05-16T22:01:17.054Z,99.90
2018-05-16T22:04:20.290Z,99.90
2018-05-16T22:07:23.542Z,99.90
2018-05-16T22:10:26.729Z,99.90
2018-05-16T22:13:30.485Z,99.90
2018-05-16T22:16:33.660Z,99.90
2018-05-16T22:19:37.289Z,99.90
2018-05-16T22:22:40.547Z,99.90
2018-05-16T22:25:43.743Z,99.90
2018-05-16T22:28:46.961Z,99.90
2018-05-16T22:31:55.919Z,99.90
2018-05-16T22:35:04.745Z,99.90
2018-05-16T22:38:14.588Z,99.90
2018-05-16T22:41:23.541Z,99.90
2018-05-16T22:48:04.707Z,99.90
2018-05-16T22:51:08.662Z,99.90
2018-05-16T22:54:11.882Z,99.90
2018-05-16T22:57:15.369Z,99.90
2018-05-16T23:00:21.337Z,99.90
2018-05-16T23:03:24.608Z,99.90
2018-05-16T23:06:27.774Z,99.90
2018-05-16T23:09:31.601Z,99.90
2018-05-16T23:12:35.755Z,99.90
2018-05-16T23:15:38.935Z,99.90
2018-05-16T23:18:42.124Z,99.90
2018-05-16T23:21:45.420Z,99.90
2018-05-16T23:24:48.959Z,99.90
2018-05-16T23:27:52.234Z,99.90
2018-05-16T23:30:56.004Z,99.90
2018-05-16T23:33:59.291Z,99.90
2018-05-16T23:37:02.654Z,99.90
2018-05-16T23:40:05.863Z,99.90
2018-05-16T23:43:09.859Z,99.90
2018-05-16T23:46:13.105Z,99.90
2018-05-16T23:49:17.870Z,99.90
2018-05-16T23:52:21.058Z,99.90
2018-05-16T23:55:24.650Z,99.90
2018-05-16T23:58:28.621Z,99.90
